PWSweather.com
Personal Weather Stations
Station Observations
HELOTES
Helotes Park Terrace, Helotes, TX 78023

Helotes Park TerraceHelotes, TX 78023

Lat: 29.57, Lon: -98.68

Elevation: 1060

Station Type: Ambient Weather WS-1090

Latest ConditionsUpdated 4:13:10 PM CDT Tuesday, Sep 2, 2014
Currently Today's Max Today's Min Today's Average
Temperature 94.7°F34.8°C 95.8°F35.4°C 77.4°F25.2°C 84.1°F28.9°C
Dew Point 72.6°F22.6°C 75.5°F24.2°C 70.8°F21.6°C 72.8°F22.7°C
Winds 1.8 mph ENE2.9 kmh ENE 9.5 mph E15.3 kmh E - 4.3 mph 6.9 kmh
Wind Gusts 8.1 mph13.0 kmh 12.8 mph20.6 kmh - -
Humidity 49% 83% 49% 70%
Pressure 29.82 in1009.8 mb 29.90 in1012.5 mb 29.82 in1009.8 mb -
Hour Temp Dew Point Humidity Winds Wind Gusts Pressure Precip Precip Rate Daily Precip Total
04:13 PM 94.7°F34.8°C 72.6°F22.6°C 49% 1.8 mph ENE2.9 kmh ENE 8.1 mph13.0 kmh 29.82 in1009.8 mb 0.00 in0.0 mm 0.00 in/hr0.0 mm/hr 0.00 in0.0 mm
04:08 PM 94.7°F34.8°C 72.6°F22.6°C 49% 4.6 mph E7.4 kmh E 8.1 mph13.0 kmh 29.82 in1009.8 mb 0.00 in0.0 mm 0.00 in/hr0.0 mm/hr 0.00 in0.0 mm
04:03 PM 94.9°F34.9°C 72.8°F22.7°C 49% 6.1 mph N9.8 kmh N 9.2 mph14.8 kmh 29.82 in1009.8 mb 0.00 in0.0 mm 0.00 in/hr0.0 mm/hr 0.00 in0.0 mm
03:58 PM 94.9°F34.9°C 73.4°F23.0°C 50% 7.2 mph ENE11.6 kmh ENE 9.2 mph14.8 kmh 29.82 in1009.8 mb 0.00 in0.0 mm 0.00 in/hr0.0 mm/hr 0.00 in0.0 mm
03:53 PM 94.9°F34.9°C 73.4°F23.0°C 50% 3.7 mph E6.0 kmh E 8.5 mph13.7 kmh 29.82 in1009.8 mb 0.00 in0.0 mm 0.00 in/hr0.0 mm/hr 0.00 in0.0 mm
03:48 PM 94.9°F34.9°C 72.8°F22.7°C 49% 7.1 mph NNE11.4 kmh NNE 8.5 mph13.7 kmh 29.82 in1009.8 mb 0.00 in0.0 mm 0.00 in/hr0.0 mm/hr 0.00 in0.0 mm
03:43 PM 95.0°F35.0°C 73.0°F22.8°C 49% 7.8 mph ENE12.6 kmh ENE 8.5 mph13.7 kmh 29.82 in1009.8 mb 0.00 in0.0 mm 0.00 in/hr0.0 mm/hr 0.00 in0.0 mm
03:38 PM 95.2°F35.1°C 73.1°F22.8°C 49% 4.7 mph NNE7.6 kmh NNE 10.5 mph16.9 kmh 29.82 in1009.8 mb 0.00 in0.0 mm 0.00 in/hr0.0 mm/hr 0.00 in0.0 mm
03:33 PM 95.4°F35.2°C 73.3°F22.9°C 49% 4.9 mph NNE7.9 kmh NNE 10.5 mph16.9 kmh 29.83 in1010.2 mb 0.00 in0.0 mm 0.00 in/hr0.0 mm/hr 0.00 in0.0 mm
03:28 PM 95.6°F35.3°C 73.4°F23.0°C 49% 5.6 mph NE9.0 kmh NE 7.6 mph12.2 kmh 29.83 in1010.2 mb 0.00 in0.0 mm 0.00 in/hr0.0 mm/hr 0.00 in0.0 mm
03:23 PM 95.8°F35.4°C 73.6°F23.1°C 49% 5.9 mph N9.5 kmh N 10.5 mph16.9 kmh 29.83 in1010.2 mb 0.00 in0.0 mm 0.00 in/hr0.0 mm/hr 0.00 in0.0 mm
03:18 PM 95.6°F35.3°C 73.4°F23.0°C 49% 9.5 mph ENE15.3 kmh ENE 10.5 mph16.9 kmh 29.84 in1010.5 mb 0.00 in0.0 mm 0.00 in/hr0.0 mm/hr 0.00 in0.0 mm
03:13 PM 95.2°F35.1°C 73.8°F23.2°C 50% 6.1 mph ENE9.8 kmh ENE 12.8 mph20.6 kmh 29.84 in1010.5 mb 0.00 in0.0 mm 0.00 in/hr0.0 mm/hr 0.00 in0.0 mm
03:08 PM 95.0°F35.0°C 73.6°F23.1°C 50% 3.9 mph SSE6.3 kmh SSE 12.8 mph20.6 kmh 29.83 in1010.2 mb 0.00 in0.0 mm 0.00 in/hr0.0 mm/hr 0.00 in0.0 mm
03:03 PM 95.0°F35.0°C 73.6°F23.1°C 50% 8.6 mph N13.8 kmh N 12.8 mph20.6 kmh 29.84 in1010.5 mb 0.00 in0.0 mm 0.00 in/hr0.0 mm/hr 0.00 in0.0 mm
02:58 PM 95.2°F35.1°C 73.8°F23.2°C 50% 3.8 mph E6.1 kmh E 6.3 mph10.1 kmh 29.84 in1010.5 mb 0.00 in0.0 mm 0.00 in/hr0.0 mm/hr 0.00 in0.0 mm
02:53 PM 95.2°F35.1°C 74.4°F23.6°C 51% 3.4 mph E5.5 kmh E 7.4 mph11.9 kmh 29.84 in1010.5 mb 0.00 in0.0 mm 0.00 in/hr0.0 mm/hr 0.00 in0.0 mm
02:48 PM 94.9°F34.9°C 74.0°F23.3°C 51% 5.6 mph NE9.0 kmh NE 8.5 mph13.7 kmh 29.85 in1010.8 mb 0.00 in0.0 mm 0.00 in/hr0.0 mm/hr 0.00 in0.0 mm
02:43 PM 94.7°F34.8°C 73.8°F23.2°C 51% 3.6 mph NE5.8 kmh NE 8.5 mph13.7 kmh 29.85 in1010.8 mb 0.00 in0.0 mm 0.00 in/hr0.0 mm/hr 0.00 in0.0 mm
02:38 PM 94.7°F34.8°C 73.8°F23.2°C 51% 8.3 mph NNE13.4 kmh NNE 8.5 mph13.7 kmh 29.85 in1010.8 mb 0.00 in0.0 mm 0.00 in/hr0.0 mm/hr 0.00 in0.0 mm
02:33 PM 94.5°F34.7°C 73.6°F23.1°C 51% 6.7 mph E10.8 kmh E 8.9 mph14.3 kmh 29.85 in1010.8 mb 0.00 in0.0 mm 0.00 in/hr0.0 mm/hr 0.00 in0.0 mm
02:28 PM 94.3°F34.6°C 73.4°F23.0°C 51% 7.5 mph NNE12.1 kmh NNE 8.9 mph14.3 kmh 29.85 in1010.8 mb 0.00 in0.0 mm 0.00 in/hr0.0 mm/hr 0.00 in0.0 mm
02:23 PM 94.7°F34.8°C 73.8°F23.2°C 51% 5.7 mph NE9.2 kmh NE 7.2 mph11.6 kmh 29.86 in1011.2 mb 0.00 in0.0 mm 0.00 in/hr0.0 mm/hr 0.00 in0.0 mm
02:18 PM 94.7°F34.8°C 73.8°F23.2°C 51% 5.7 mph ESE9.2 kmh ESE 6.3 mph10.1 kmh 29.86 in1011.2 mb 0.00 in0.0 mm 0.00 in/hr0.0 mm/hr 0.00 in0.0 mm
02:13 PM 94.7°F34.8°C 73.8°F23.2°C 51% 2.6 mph E4.2 kmh E 6.0 mph9.7 kmh 29.86 in1011.2 mb 0.00 in0.0 mm 0.00 in/hr0.0 mm/hr 0.00 in0.0 mm
02:08 PM 94.7°F34.8°C 73.8°F23.2°C 51% 4.9 mph ENE7.9 kmh ENE 8.1 mph13.0 kmh 29.87 in1011.5 mb 0.00 in0.0 mm 0.00 in/hr0.0 mm/hr 0.00 in0.0 mm
02:03 PM 95.0°F35.0°C 74.2°F23.4°C 51% 5.9 mph NNE9.5 kmh NNE 8.1 mph13.0 kmh 29.87 in1011.5 mb 0.00 in0.0 mm 0.00 in/hr0.0 mm/hr 0.00 in0.0 mm
01:58 PM 95.6°F35.3°C 74.6°F23.7°C 51% 4.0 mph 6.4 kmh 6.0 mph9.7 kmh 29.87 in1011.5 mb 0.00 in0.0 mm 0.00 in/hr0.0 mm/hr 0.00 in0.0 mm
01:53 PM 95.6°F35.3°C 74.6°F23.7°C 51% 5.6 mph ESE9.0 kmh ESE 6.0 mph9.7 kmh 29.87 in1011.5 mb 0.00 in0.0 mm 0.00 in/hr0.0 mm/hr 0.00 in0.0 mm
01:48 PM 95.8°F35.4°C 74.8°F23.8°C 51% 4.3 mph NE6.9 kmh NE 7.2 mph11.6 kmh 29.88 in1011.9 mb 0.00 in0.0 mm 0.00 in/hr0.0 mm/hr 0.00 in0.0 mm
01:43 PM 95.8°F35.4°C 74.8°F23.8°C 51% 4.9 mph ENE7.9 kmh ENE 9.2 mph14.8 kmh 29.87 in1011.5 mb 0.00 in0.0 mm 0.00 in/hr0.0 mm/hr 0.00 in0.0 mm
01:38 PM 95.8°F35.4°C 74.8°F23.8°C 51% 4.6 mph ESE7.4 kmh ESE 9.2 mph14.8 kmh 29.87 in1011.5 mb 0.00 in0.0 mm 0.00 in/hr0.0 mm/hr 0.00 in0.0 mm
01:33 PM 95.8°F35.4°C 74.8°F23.8°C 51% 4.0 mph SE6.4 kmh SE 7.6 mph12.2 kmh 29.87 in1011.5 mb 0.00 in0.0 mm 0.00 in/hr0.0 mm/hr 0.00 in0.0 mm
01:28 PM 95.6°F35.3°C 75.2°F24.0°C 52% 6.6 mph E10.6 kmh E 7.6 mph12.2 kmh 29.87 in1011.5 mb 0.00 in0.0 mm 0.00 in/hr0.0 mm/hr 0.00 in0.0 mm
01:23 PM 95.4°F35.2°C 75.1°F23.9°C 52% 5.6 mph E9.0 kmh E 7.2 mph11.6 kmh 29.88 in1011.9 mb 0.00 in0.0 mm 0.00 in/hr0.0 mm/hr 0.00 in0.0 mm
01:18 PM 95.2°F35.1°C 75.4°F24.1°C 53% 6.2 mph NE10.0 kmh NE 7.2 mph11.6 kmh 29.87 in1011.5 mb 0.00 in0.0 mm 0.00 in/hr0.0 mm/hr 0.00 in0.0 mm
01:13 PM 94.9°F34.9°C 75.1°F23.9°C 53% 5.1 mph E8.2 kmh E 7.4 mph11.9 kmh 29.87 in1011.5 mb 0.00 in0.0 mm 0.00 in/hr0.0 mm/hr 0.00 in0.0 mm
01:08 PM 94.7°F34.8°C 74.9°F23.8°C 53% 7.1 mph S11.4 kmh S 7.4 mph11.9 kmh 29.88 in1011.9 mb 0.00 in0.0 mm 0.00 in/hr0.0 mm/hr 0.00 in0.0 mm
01:02 PM 94.5°F34.7°C 75.2°F24.0°C 54% 4.3 mph ESE6.9 kmh ESE 7.4 mph11.9 kmh 29.88 in1011.9 mb 0.00 in0.0 mm 0.00 in/hr0.0 mm/hr 0.00 in0.0 mm
12:58 PM 94.0°F34.4°C 75.3°F24.1°C 55% 5.7 mph SE9.2 kmh SE 7.4 mph11.9 kmh 29.88 in1011.9 mb 0.00 in0.0 mm 0.00 in/hr0.0 mm/hr 0.00 in0.0 mm
12:53 PM 93.1°F33.9°C 75.0°F23.9°C 56% 5.3 mph NE8.5 kmh NE 7.4 mph11.9 kmh 29.88 in1011.9 mb 0.00 in0.0 mm 0.00 in/hr0.0 mm/hr 0.00 in0.0 mm
12:48 PM 92.2°F33.4°C 74.7°F23.7°C 57% 4.6 mph NE7.4 kmh NE 8.7 mph14.0 kmh 29.88 in1011.9 mb 0.00 in0.0 mm 0.00 in/hr0.0 mm/hr 0.00 in0.0 mm
12:42 PM 91.8°F33.2°C 74.9°F23.8°C 58% 7.2 mph E11.6 kmh E 8.7 mph14.0 kmh 29.89 in1012.2 mb 0.00 in0.0 mm 0.00 in/hr0.0 mm/hr 0.00 in0.0 mm
12:38 PM 91.4°F33.0°C 74.5°F23.6°C 58% 7.8 mph E12.6 kmh E 8.7 mph14.0 kmh 29.89 in1012.2 mb 0.00 in0.0 mm 0.00 in/hr0.0 mm/hr 0.00 in0.0 mm
12:33 PM 91.1°F32.8°C 74.7°F23.7°C 59% 6.6 mph NNE10.6 kmh NNE 9.6 mph15.4 kmh 29.89 in1012.2 mb 0.00 in0.0 mm 0.00 in/hr0.0 mm/hr 0.00 in0.0 mm
12:27 PM 90.5°F32.5°C 74.3°F23.5°C 59% 6.0 mph ESE9.7 kmh ESE 11.2 mph18.0 kmh 29.89 in1012.2 mb 0.00 in0.0 mm 0.00 in/hr0.0 mm/hr 0.00 in0.0 mm
12:22 PM 90.2°F32.3°C 74.4°F23.6°C 60% 9.5 mph E15.3 kmh E 11.2 mph18.0 kmh 29.89 in1012.2 mb 0.00 in0.0 mm 0.00 in/hr0.0 mm/hr 0.00 in0.0 mm
12:18 PM 90.0°F32.2°C 74.8°F23.8°C 61% 5.8 mph SE9.3 kmh SE 6.5 mph10.5 kmh 29.89 in1012.2 mb 0.00 in0.0 mm 0.00 in/hr0.0 mm/hr 0.00 in0.0 mm
12:12 PM 90.0°F32.2°C 74.8°F23.8°C 61% 5.8 mph SE9.3 kmh SE 6.5 mph10.5 kmh 29.89 in1012.2 mb 0.00 in0.0 mm 0.00 in/hr0.0 mm/hr 0.00 in0.0 mm
12:07 PM 89.8°F32.1°C 75.1°F23.9°C 62% 3.4 mph E5.5 kmh E 8.3 mph13.4 kmh 29.89 in1012.2 mb 0.00 in0.0 mm 0.00 in/hr0.0 mm/hr 0.00 in0.0 mm
12:02 PM 89.6°F32.0°C 74.4°F23.6°C 61% 6.3 mph E10.1 kmh E 8.3 mph13.4 kmh 29.89 in1012.2 mb 0.00 in0.0 mm 0.00 in/hr0.0 mm/hr 0.00 in0.0 mm
11:57 AM 89.6°F32.0°C 74.4°F23.6°C 61% 6.0 mph ESE9.7 kmh ESE 7.6 mph12.2 kmh 29.89 in1012.2 mb 0.00 in0.0 mm 0.00 in/hr0.0 mm/hr 0.00 in0.0 mm
11:53 AM 89.8°F32.1°C 74.6°F23.7°C 61% 5.7 mph SE9.2 kmh SE 7.2 mph11.6 kmh 29.90 in1012.5 mb 0.00 in0.0 mm 0.00 in/hr0.0 mm/hr 0.00 in0.0 mm
11:47 AM 89.8°F32.1°C 75.1°F23.9°C 62% 5.2 mph E8.4 kmh E 7.2 mph11.6 kmh 29.90 in1012.5 mb 0.00 in0.0 mm 0.00 in/hr0.0 mm/hr 0.00 in0.0 mm
11:42 AM 89.3°F31.8°C 75.1°F23.9°C 63% 5.6 mph NE9.0 kmh NE 9.8 mph15.8 kmh 29.90 in1012.5 mb 0.00 in0.0 mm 0.00 in/hr0.0 mm/hr 0.00 in0.0 mm
11:37 AM 89.1°F31.7°C 74.9°F23.8°C 63% 6.7 mph SE10.8 kmh SE 9.8 mph15.8 kmh 29.90 in1012.5 mb 0.00 in0.0 mm 0.00 in/hr0.0 mm/hr 0.00 in0.0 mm
11:32 AM 88.7°F31.5°C 75.0°F23.9°C 64% 8.6 mph ESE13.8 kmh ESE 9.8 mph15.8 kmh 29.89 in1012.2 mb 0.00 in0.0 mm 0.00 in/hr0.0 mm/hr 0.00 in0.0 mm
11:27 AM 88.4°F31.3°C 75.2°F24.0°C 65% 6.9 mph SSE11.1 kmh SSE 8.9 mph14.3 kmh 29.90 in1012.5 mb 0.00 in0.0 mm 0.00 in/hr0.0 mm/hr 0.00 in0.0 mm
11:22 AM 87.8°F31.0°C 75.5°F24.2°C 67% 6.1 mph E9.8 kmh E 8.9 mph14.3 kmh 29.89 in1012.2 mb 0.00 in0.0 mm 0.00 in/hr0.0 mm/hr 0.00 in0.0 mm
11:17 AM 87.1°F30.6°C 75.3°F24.1°C 68% 5.4 mph E8.7 kmh E 8.9 mph14.3 kmh 29.89 in1012.2 mb 0.00 in0.0 mm 0.00 in/hr0.0 mm/hr 0.00 in0.0 mm
11:12 AM 86.6°F30.3°C 75.2°F24.0°C 69% 3.0 mph NE4.8 kmh NE 8.7 mph14.0 kmh 29.89 in1012.2 mb 0.00 in0.0 mm 0.00 in/hr0.0 mm/hr 0.00 in0.0 mm
11:07 AM 86.0°F30.0°C 75.2°F24.0°C 70% 4.1 mph E6.6 kmh E 8.7 mph14.0 kmh 29.89 in1012.2 mb 0.00 in0.0 mm 0.00 in/hr0.0 mm/hr 0.00 in0.0 mm
11:02 AM 85.7°F29.8°C 74.9°F23.8°C 70% 5.8 mph ESE9.3 kmh ESE 6.9 mph11.1 kmh 29.89 in1012.2 mb 0.00 in0.0 mm 0.00 in/hr0.0 mm/hr 0.00 in0.0 mm
10:57 AM 85.5°F29.7°C 75.1°F23.9°C 71% 4.3 mph ESE6.9 kmh ESE 9.2 mph14.8 kmh 29.89 in1012.2 mb 0.00 in0.0 mm 0.00 in/hr0.0 mm/hr 0.00 in0.0 mm
10:52 AM 85.1°F29.5°C 74.7°F23.7°C 71% 7.2 mph SSE11.6 kmh SSE 9.2 mph14.8 kmh 29.89 in1012.2 mb 0.00 in0.0 mm 0.00 in/hr0.0 mm/hr 0.00 in0.0 mm
10:47 AM 84.6°F29.2°C 74.6°F23.7°C 72% 6.3 mph SSW10.1 kmh SSW 8.5 mph13.7 kmh 29.89 in1012.2 mb 0.00 in0.0 mm 0.00 in/hr0.0 mm/hr 0.00 in0.0 mm
10:42 AM 84.6°F29.2°C 74.6°F23.7°C 72% 6.1 mph SE9.8 kmh SE 8.5 mph13.7 kmh 29.89 in1012.2 mb 0.00 in0.0 mm 0.00 in/hr0.0 mm/hr 0.00 in0.0 mm
10:37 AM 84.2°F29.0°C 74.6°F23.7°C 73% 4.2 mph ENE6.8 kmh ENE 9.2 mph14.8 kmh 29.89 in1012.2 mb 0.00 in0.0 mm 0.00 in/hr0.0 mm/hr 0.00 in0.0 mm
10:32 AM 83.9°F28.8°C 74.3°F23.5°C 73% 7.7 mph ESE12.4 kmh ESE 9.2 mph14.8 kmh 29.89 in1012.2 mb 0.00 in0.0 mm 0.00 in/hr0.0 mm/hr 0.00 in0.0 mm
10:27 AM 83.5°F28.6°C 74.4°F23.6°C 74% 5.2 mph ESE8.4 kmh ESE 7.6 mph12.2 kmh 29.89 in1012.2 mb 0.00 in0.0 mm 0.00 in/hr0.0 mm/hr 0.00 in0.0 mm
10:22 AM 83.2°F28.4°C 74.0°F23.3°C 74% 3.2 mph E5.1 kmh E 7.6 mph12.2 kmh 29.89 in1012.2 mb 0.00 in0.0 mm 0.00 in/hr0.0 mm/hr 0.00 in0.0 mm
10:17 AM 82.6°F28.1°C 73.9°F23.3°C 75% 6.5 mph NE10.5 kmh NE 6.5 mph10.5 kmh 29.89 in1012.2 mb 0.00 in0.0 mm 0.00 in/hr0.0 mm/hr 0.00 in0.0 mm
10:12 AM 82.4°F28.0°C 74.2°F23.4°C 76% 6.3 mph ENE10.1 kmh ENE 6.3 mph10.1 kmh 29.89 in1012.2 mb 0.00 in0.0 mm 0.00 in/hr0.0 mm/hr 0.00 in0.0 mm
10:07 AM 82.4°F28.0°C 74.2°F23.4°C 76% 4.0 mph SSE6.4 kmh SSE 7.2 mph11.6 kmh 29.89 in1012.2 mb 0.00 in0.0 mm 0.00 in/hr0.0 mm/hr 0.00 in0.0 mm
10:02 AM 82.4°F28.0°C 74.2°F23.4°C 76% 5.2 mph E8.4 kmh E 7.2 mph11.6 kmh 29.90 in1012.5 mb 0.00 in0.0 mm 0.00 in/hr0.0 mm/hr 0.00 in0.0 mm
09:57 AM 82.4°F28.0°C 74.5°F23.6°C 77% 4.9 mph E7.9 kmh E 8.1 mph13.0 kmh 29.89 in1012.2 mb 0.00 in0.0 mm 0.00 in/hr0.0 mm/hr 0.00 in0.0 mm
09:52 AM 82.4°F28.0°C 74.5°F23.6°C 77% 6.5 mph E10.5 kmh E 8.3 mph13.4 kmh 29.89 in1012.2 mb 0.00 in0.0 mm 0.00 in/hr0.0 mm/hr 0.00 in0.0 mm
09:47 AM 82.3°F27.9°C 74.8°F23.8°C 78% 8.1 mph E13.0 kmh E 8.3 mph13.4 kmh 29.89 in1012.2 mb 0.00 in0.0 mm 0.00 in/hr0.0 mm/hr 0.00 in0.0 mm
09:42 AM 82.3°F27.9°C 75.2°F24.0°C 79% 8.2 mph E13.2 kmh E 8.3 mph13.4 kmh 29.89 in1012.2 mb 0.00 in0.0 mm 0.00 in/hr0.0 mm/hr 0.00 in0.0 mm
09:37 AM 82.1°F27.8°C 75.0°F23.9°C 79% 4.2 mph E6.8 kmh E 6.5 mph10.5 kmh 29.89 in1012.2 mb 0.00 in0.0 mm 0.00 in/hr0.0 mm/hr 0.00 in0.0 mm
09:32 AM 81.7°F27.6°C 75.1°F23.9°C 80% 3.7 mph ESE6.0 kmh ESE 7.4 mph11.9 kmh 29.89 in1012.2 mb 0.00 in0.0 mm 0.00 in/hr0.0 mm/hr 0.00 in0.0 mm
09:27 AM 81.4°F27.4°C 74.4°F23.6°C 79% 4.2 mph SSE6.8 kmh SSE 7.4 mph11.9 kmh 29.89 in1012.2 mb 0.00 in0.0 mm 0.00 in/hr0.0 mm/hr 0.00 in0.0 mm
09:22 AM 81.0°F27.2°C 74.0°F23.3°C 79% 4.5 mph ESE7.2 kmh ESE 8.1 mph13.0 kmh 29.89 in1012.2 mb 0.00 in0.0 mm 0.00 in/hr0.0 mm/hr 0.00 in0.0 mm
09:17 AM 80.8°F27.1°C 74.2°F23.4°C 80% 4.5 mph E7.2 kmh E 8.1 mph13.0 kmh 29.89 in1012.2 mb 0.00 in0.0 mm 0.00 in/hr0.0 mm/hr 0.00 in0.0 mm
09:12 AM 80.5°F26.9°C 74.2°F23.4°C 81% 5.2 mph ESE8.4 kmh ESE 6.0 mph9.7 kmh 29.89 in1012.2 mb 0.00 in0.0 mm 0.00 in/hr0.0 mm/hr 0.00 in0.0 mm
09:07 AM 80.1°F26.7°C 73.8°F23.2°C 81% 4.7 mph ENE7.6 kmh ENE 4.9 mph7.9 kmh 29.89 in1012.2 mb 0.00 in0.0 mm 0.00 in/hr0.0 mm/hr 0.00 in0.0 mm
09:02 AM 79.6°F26.4°C 73.3°F22.9°C 81% 2.6 mph NE4.2 kmh NE 6.3 mph10.1 kmh 29.89 in1012.2 mb 0.00 in0.0 mm 0.00 in/hr0.0 mm/hr 0.00 in0.0 mm
08:57 AM 79.6°F26.4°C 73.3°F22.9°C 81% 5.3 mph SE8.5 kmh SE 6.3 mph10.1 kmh 29.89 in1012.2 mb 0.00 in0.0 mm 0.00 in/hr0.0 mm/hr 0.00 in0.0 mm
08:52 AM 79.6°F26.4°C 73.6°F23.1°C 82% 3.5 mph SE5.6 kmh SE 4.7 mph7.6 kmh 29.89 in1012.2 mb 0.00 in0.0 mm 0.00 in/hr0.0 mm/hr 0.00 in0.0 mm
08:47 AM 79.2°F26.2°C 73.3°F22.9°C 82% 3.4 mph S5.5 kmh S 5.4 mph8.7 kmh 29.89 in1012.2 mb 0.00 in0.0 mm 0.00 in/hr0.0 mm/hr 0.00 in0.0 mm
08:42 AM 79.0°F26.1°C 73.5°F23.1°C 83% 4.6 mph S7.4 kmh S 5.4 mph8.7 kmh 29.89 in1012.2 mb 0.00 in0.0 mm 0.00 in/hr0.0 mm/hr 0.00 in0.0 mm
08:37 AM 78.8°F26.0°C 73.3°F22.9°C 83% 3.1 mph E5.0 kmh E 4.7 mph7.6 kmh 29.89 in1012.2 mb 0.00 in0.0 mm 0.00 in/hr0.0 mm/hr 0.00 in0.0 mm
08:32 AM 78.5°F25.8°C 72.9°F22.7°C 83% 3.5 mph E5.6 kmh E 4.7 mph7.6 kmh 29.89 in1012.2 mb 0.00 in0.0 mm 0.00 in/hr0.0 mm/hr 0.00 in0.0 mm
08:27 AM 78.1°F25.6°C 72.5°F22.5°C 83% 2.7 mph E4.3 kmh E 4.7 mph7.6 kmh 29.89 in1012.2 mb 0.00 in0.0 mm 0.00 in/hr0.0 mm/hr 0.00 in0.0 mm
08:22 AM 77.9°F25.5°C 72.0°F22.2°C 82% 1.8 mph SSE2.9 kmh SSE 4.3 mph6.9 kmh 29.89 in1012.2 mb 0.00 in0.0 mm 0.00 in/hr0.0 mm/hr 0.00 in0.0 mm
08:17 AM 77.9°F25.5°C 72.0°F22.2°C 82% 2.4 mph SE3.9 kmh SE 4.0 mph6.4 kmh 29.89 in1012.2 mb 0.00 in0.0 mm 0.00 in/hr0.0 mm/hr 0.00 in0.0 mm
08:12 AM 77.8°F25.4°C 71.8°F22.1°C 82% 2.3 mph SSW3.7 kmh SSW 4.5 mph7.2 kmh 29.88 in1011.9 mb 0.00 in0.0 mm 0.00 in/hr0.0 mm/hr 0.00 in0.0 mm
08:07 AM 77.8°F25.4°C 71.8°F22.1°C 82% 2.7 mph S4.3 kmh S 6.7 mph10.8 kmh 29.88 in1011.9 mb 0.00 in0.0 mm 0.00 in/hr0.0 mm/hr 0.00 in0.0 mm
08:02 AM 77.8°F25.4°C 71.8°F22.1°C 82% 2.6 mph SSE4.2 kmh SSE 8.1 mph13.0 kmh 29.88 in1011.9 mb 0.00 in0.0 mm 0.00 in/hr0.0 mm/hr 0.00 in0.0 mm
07:57 AM 77.8°F25.4°C 71.8°F22.1°C 82% 4.9 mph SSE7.9 kmh SSE 8.1 mph13.0 kmh 29.88 in1011.9 mb 0.00 in0.0 mm 0.00 in/hr0.0 mm/hr 0.00 in0.0 mm
07:52 AM 77.6°F25.3°C 71.6°F22.0°C 82% 1.8 mph SE2.9 kmh SE 3.4 mph5.5 kmh 29.88 in1011.9 mb 0.00 in0.0 mm 0.00 in/hr0.0 mm/hr 0.00 in0.0 mm
07:47 AM 77.6°F25.3°C 71.6°F22.0°C 82% 1.7 mph S2.7 kmh S 3.6 mph5.8 kmh 29.88 in1011.9 mb 0.00 in0.0 mm 0.00 in/hr0.0 mm/hr 0.00 in0.0 mm
07:42 AM 77.6°F25.3°C 71.6°F22.0°C 82% 1.2 mph SSE1.9 kmh SSE 3.6 mph5.8 kmh 29.88 in1011.9 mb 0.00 in0.0 mm 0.00 in/hr0.0 mm/hr 0.00 in0.0 mm
07:37 AM 77.4°F25.2°C 71.5°F21.9°C 82% 2.8 mph SSE4.5 kmh SSE 3.6 mph5.8 kmh 29.87 in1011.5 mb 0.00 in0.0 mm 0.00 in/hr0.0 mm/hr 0.00 in0.0 mm
07:32 AM 77.4°F25.2°C 71.5°F21.9°C 82% 1.8 mph SE2.9 kmh SE 2.7 mph4.3 kmh 29.88 in1011.9 mb 0.00 in0.0 mm 0.00 in/hr0.0 mm/hr 0.00 in0.0 mm
07:27 AM 77.4°F25.2°C 71.1°F21.7°C 81% 2.6 mph SSE4.2 kmh SSE 3.4 mph5.5 kmh 29.88 in1011.9 mb 0.00 in0.0 mm 0.00 in/hr0.0 mm/hr 0.00 in0.0 mm
07:22 AM 77.4°F25.2°C 71.1°F21.7°C 81% 1.8 mph SE2.9 kmh SE 4.5 mph7.2 kmh 29.88 in1011.9 mb 0.00 in0.0 mm 0.00 in/hr0.0 mm/hr 0.00 in0.0 mm
07:17 AM 77.4°F25.2°C 71.1°F21.7°C 81% 3.4 mph E5.5 kmh E 4.5 mph7.2 kmh 29.88 in1011.9 mb 0.00 in0.0 mm 0.00 in/hr0.0 mm/hr 0.00 in0.0 mm
07:12 AM 77.4°F25.2°C 71.1°F21.7°C 81% 1.5 mph ESE2.4 kmh ESE 4.0 mph6.4 kmh 29.87 in1011.5 mb 0.00 in0.0 mm 0.00 in/hr0.0 mm/hr 0.00 in0.0 mm
07:07 AM 77.4°F25.2°C 71.1°F21.7°C 81% 2.7 mph SE4.3 kmh SE 4.0 mph6.4 kmh 29.87 in1011.5 mb 0.00 in0.0 mm 0.00 in/hr0.0 mm/hr 0.00 in0.0 mm
07:02 AM 77.4°F25.2°C 71.1°F21.7°C 81% 1.5 mph SE2.4 kmh SE 2.5 mph4.0 kmh 29.87 in1011.5 mb 0.00 in0.0 mm 0.00 in/hr0.0 mm/hr 0.00 in0.0 mm
06:57 AM 77.6°F25.3°C 71.3°F21.8°C 81% 1.1 mph SE1.8 kmh SE 1.8 mph2.9 kmh 29.87 in1011.5 mb 0.00 in0.0 mm 0.00 in/hr0.0 mm/hr 0.00 in0.0 mm
06:52 AM 77.6°F25.3°C 71.3°F21.8°C 81% 1.8 mph SE2.9 kmh SE 3.4 mph5.5 kmh 29.87 in1011.5 mb 0.00 in0.0 mm 0.00 in/hr0.0 mm/hr 0.00 in0.0 mm
06:47 AM 77.6°F25.3°C 71.3°F21.8°C 81% 1.5 mph ESE2.4 kmh ESE 3.4 mph5.5 kmh 29.87 in1011.5 mb 0.00 in0.0 mm 0.00 in/hr0.0 mm/hr 0.00 in0.0 mm
06:42 AM 77.6°F25.3°C 71.3°F21.8°C 81% 2.0 mph SE3.2 kmh SE 3.4 mph5.5 kmh 29.87 in1011.5 mb 0.00 in0.0 mm 0.00 in/hr0.0 mm/hr 0.00 in0.0 mm
06:37 AM 77.6°F25.3°C 71.3°F21.8°C 81% 2.5 mph ESE4.0 kmh ESE 3.4 mph5.5 kmh 29.87 in1011.5 mb 0.00 in0.0 mm 0.00 in/hr0.0 mm/hr 0.00 in0.0 mm
06:32 AM 77.8°F25.4°C 71.5°F21.9°C 81% 2.0 mph ESE3.2 kmh ESE 4.3 mph6.9 kmh 29.87 in1011.5 mb 0.00 in0.0 mm 0.00 in/hr0.0 mm/hr 0.00 in0.0 mm
06:27 AM 77.8°F25.4°C 71.5°F21.9°C 81% 2.2 mph E3.5 kmh E 4.3 mph6.9 kmh 29.87 in1011.5 mb 0.00 in0.0 mm 0.00 in/hr0.0 mm/hr 0.00 in0.0 mm
06:22 AM 77.8°F25.4°C 71.5°F21.9°C 81% 1.7 mph SE2.7 kmh SE 4.0 mph6.4 kmh 29.87 in1011.5 mb 0.00 in0.0 mm 0.00 in/hr0.0 mm/hr 0.00 in0.0 mm
06:17 AM 77.8°F25.4°C 71.1°F21.7°C 80% 2.2 mph ESE3.5 kmh ESE 4.0 mph6.4 kmh 29.87 in1011.5 mb 0.00 in0.0 mm 0.00 in/hr0.0 mm/hr 0.00 in0.0 mm
06:12 AM 77.9°F25.5°C 71.3°F21.8°C 80% 1.6 mph SSE2.6 kmh SSE 4.0 mph6.4 kmh 29.86 in1011.2 mb 0.00 in0.0 mm 0.00 in/hr0.0 mm/hr 0.00 in0.0 mm
06:07 AM 77.9°F25.5°C 71.3°F21.8°C 80% 3.1 mph E5.0 kmh E 4.0 mph6.4 kmh 29.86 in1011.2 mb 0.00 in0.0 mm 0.00 in/hr0.0 mm/hr 0.00 in0.0 mm
06:02 AM 78.1°F25.6°C 71.5°F21.9°C 80% 2.4 mph SSE3.9 kmh SSE 3.6 mph5.8 kmh 29.86 in1011.2 mb 0.00 in0.0 mm 0.00 in/hr0.0 mm/hr 0.00 in0.0 mm
05:57 AM 78.1°F25.6°C 71.5°F21.9°C 80% 3.1 mph SE5.0 kmh SE 5.1 mph8.2 kmh 29.86 in1011.2 mb 0.00 in0.0 mm 0.00 in/hr0.0 mm/hr 0.00 in0.0 mm
05:52 AM 78.1°F25.6°C 71.5°F21.9°C 80% 4.4 mph SE7.1 kmh SE 5.1 mph8.2 kmh 29.86 in1011.2 mb 0.00 in0.0 mm 0.00 in/hr0.0 mm/hr 0.00 in0.0 mm
05:47 AM 78.1°F25.6°C 71.5°F21.9°C 80% 2.6 mph SE4.2 kmh SE 3.8 mph6.1 kmh 29.86 in1011.2 mb 0.00 in0.0 mm 0.00 in/hr0.0 mm/hr 0.00 in0.0 mm
05:42 AM 78.3°F25.7°C 71.6°F22.0°C 80% 2.4 mph SE3.9 kmh SE 5.1 mph8.2 kmh 29.86 in1011.2 mb 0.00 in0.0 mm 0.00 in/hr0.0 mm/hr 0.00 in0.0 mm
05:37 AM 78.5°F25.8°C 71.5°F21.9°C 79% 2.7 mph SE4.3 kmh SE 5.1 mph8.2 kmh 29.86 in1011.2 mb 0.00 in0.0 mm 0.00 in/hr0.0 mm/hr 0.00 in0.0 mm
05:32 AM 78.5°F25.8°C 71.5°F21.9°C 79% 2.6 mph SE4.2 kmh SE 6.9 mph11.1 kmh 29.86 in1011.2 mb 0.00 in0.0 mm 0.00 in/hr0.0 mm/hr 0.00 in0.0 mm
05:27 AM 78.5°F25.8°C 71.5°F21.9°C 79% 2.9 mph ESE4.7 kmh ESE 6.9 mph11.1 kmh 29.86 in1011.2 mb 0.00 in0.0 mm 0.00 in/hr0.0 mm/hr 0.00 in0.0 mm
05:22 AM 78.7°F25.9°C 71.7°F22.1°C 79% 2.5 mph ESE4.0 kmh ESE 3.6 mph5.8 kmh 29.86 in1011.2 mb 0.00 in0.0 mm 0.00 in/hr0.0 mm/hr 0.00 in0.0 mm
05:17 AM 78.7°F25.9°C 71.7°F22.1°C 79% 1.8 mph E2.9 kmh E 4.0 mph6.4 kmh 29.86 in1011.2 mb 0.00 in0.0 mm 0.00 in/hr0.0 mm/hr 0.00 in0.0 mm
05:12 AM 78.8°F26.0°C 71.8°F22.1°C 79% 2.5 mph ESE4.0 kmh ESE 4.3 mph6.9 kmh 29.86 in1011.2 mb 0.00 in0.0 mm 0.00 in/hr0.0 mm/hr 0.00 in0.0 mm
05:07 AM 78.8°F26.0°C 71.8°F22.1°C 79% 3.6 mph E5.8 kmh E 5.6 mph9.0 kmh 29.86 in1011.2 mb 0.00 in0.0 mm 0.00 in/hr0.0 mm/hr 0.00 in0.0 mm
05:02 AM 78.8°F26.0°C 71.8°F22.1°C 79% 3.4 mph SE5.5 kmh SE 5.6 mph9.0 kmh 29.86 in1011.2 mb 0.00 in0.0 mm 0.00 in/hr0.0 mm/hr 0.00 in0.0 mm
04:57 AM 78.8°F26.0°C 71.4°F21.9°C 78% 4.5 mph ESE7.2 kmh ESE 5.1 mph8.2 kmh 29.86 in1011.2 mb 0.00 in0.0 mm 0.00 in/hr0.0 mm/hr 0.00 in0.0 mm
04:52 AM 78.8°F26.0°C 71.4°F21.9°C 78% 1.5 mph ESE2.4 kmh ESE 4.3 mph6.9 kmh 29.86 in1011.2 mb 0.00 in0.0 mm 0.00 in/hr0.0 mm/hr 0.00 in0.0 mm
04:47 AM 78.8°F26.0°C 71.4°F21.9°C 78% 2.8 mph ENE4.5 kmh ENE 4.0 mph6.4 kmh 29.86 in1011.2 mb 0.00 in0.0 mm 0.00 in/hr0.0 mm/hr 0.00 in0.0 mm
04:42 AM 79.0°F26.1°C 71.6°F22.0°C 78% 1.8 mph ENE2.9 kmh ENE 4.0 mph6.4 kmh 29.86 in1011.2 mb 0.00 in0.0 mm 0.00 in/hr0.0 mm/hr 0.00 in0.0 mm
04:37 AM 79.0°F26.1°C 71.6°F22.0°C 78% 3.0 mph ESE4.8 kmh ESE 4.5 mph7.2 kmh 29.86 in1011.2 mb 0.00 in0.0 mm 0.00 in/hr0.0 mm/hr 0.00 in0.0 mm
04:32 AM 79.0°F26.1°C 71.6°F22.0°C 78% 1.7 mph E2.7 kmh E 6.9 mph11.1 kmh 29.86 in1011.2 mb 0.00 in0.0 mm 0.00 in/hr0.0 mm/hr 0.00 in0.0 mm
04:27 AM 79.2°F26.2°C 71.7°F22.1°C 78% 5.2 mph SE8.4 kmh SE 6.9 mph11.1 kmh 29.86 in1011.2 mb 0.00 in0.0 mm 0.00 in/hr0.0 mm/hr 0.00 in0.0 mm
04:22 AM 79.2°F26.2°C 71.4°F21.9°C 77% 1.1 mph ENE1.8 kmh ENE 4.3 mph6.9 kmh 29.86 in1011.2 mb 0.00 in0.0 mm 0.00 in/hr0.0 mm/hr 0.00 in0.0 mm
04:17 AM 79.2°F26.2°C 71.4°F21.9°C 77% 3.1 mph SE5.0 kmh SE 4.7 mph7.6 kmh 29.86 in1011.2 mb 0.00 in0.0 mm 0.00 in/hr0.0 mm/hr 0.00 in0.0 mm
04:12 AM 79.2°F26.2°C 71.4°F21.9°C 77% 3.2 mph E5.1 kmh E 5.8 mph9.3 kmh 29.86 in1011.2 mb 0.00 in0.0 mm 0.00 in/hr0.0 mm/hr 0.00 in0.0 mm
04:07 AM 79.2°F26.2°C 71.4°F21.9°C 77% 2.5 mph ESE4.0 kmh ESE 5.8 mph9.3 kmh 29.86 in1011.2 mb 0.00 in0.0 mm 0.00 in/hr0.0 mm/hr 0.00 in0.0 mm
04:02 AM 79.2°F26.2°C 71.4°F21.9°C 77% 2.9 mph SE4.7 kmh SE 5.8 mph9.3 kmh 29.86 in1011.2 mb 0.00 in0.0 mm 0.00 in/hr0.0 mm/hr 0.00 in0.0 mm
03:57 AM 79.2°F26.2°C 71.4°F21.9°C 77% 3.3 mph ENE5.3 kmh ENE 6.5 mph10.5 kmh 29.86 in1011.2 mb 0.00 in0.0 mm 0.00 in/hr0.0 mm/hr 0.00 in0.0 mm
03:52 AM 79.4°F26.3°C 71.6°F22.0°C 77% 4.1 mph SE6.6 kmh SE 6.5 mph10.5 kmh 29.86 in1011.2 mb 0.00 in0.0 mm 0.00 in/hr0.0 mm/hr 0.00 in0.0 mm
03:47 AM 79.4°F26.3°C 71.6°F22.0°C 77% 6.5 mph E10.5 kmh E 6.5 mph10.5 kmh 29.86 in1011.2 mb 0.00 in0.0 mm 0.00 in/hr0.0 mm/hr 0.00 in0.0 mm
03:42 AM 79.4°F26.3°C 71.6°F22.0°C 77% 3.3 mph S5.3 kmh S 6.5 mph10.5 kmh 29.86 in1011.2 mb 0.00 in0.0 mm 0.00 in/hr0.0 mm/hr 0.00 in0.0 mm
03:37 AM 79.4°F26.3°C 71.6°F22.0°C 77% 2.7 mph ESE4.3 kmh ESE 6.5 mph10.5 kmh 29.86 in1011.2 mb 0.00 in0.0 mm 0.00 in/hr0.0 mm/hr 0.00 in0.0 mm
03:32 AM 79.4°F26.3°C 71.1°F21.7°C 76% 4.5 mph ESE7.2 kmh ESE 6.0 mph9.7 kmh 29.86 in1011.2 mb 0.00 in0.0 mm 0.00 in/hr0.0 mm/hr 0.00 in0.0 mm
03:27 AM 79.6°F26.4°C 71.3°F21.8°C 76% 2.9 mph SSE4.7 kmh SSE 6.0 mph9.7 kmh 29.86 in1011.2 mb 0.00 in0.0 mm 0.00 in/hr0.0 mm/hr 0.00 in0.0 mm
03:22 AM 79.6°F26.4°C 71.3°F21.8°C 76% 3.8 mph ESE6.1 kmh ESE 7.2 mph11.6 kmh 29.86 in1011.2 mb 0.00 in0.0 mm 0.00 in/hr0.0 mm/hr 0.00 in0.0 mm
03:17 AM 79.6°F26.4°C 71.3°F21.8°C 76% 4.0 mph E6.4 kmh E 7.2 mph11.6 kmh 29.86 in1011.2 mb 0.00 in0.0 mm 0.00 in/hr0.0 mm/hr 0.00 in0.0 mm
03:12 AM 79.6°F26.4°C 71.3°F21.8°C 76% 3.4 mph ESE5.5 kmh ESE 6.5 mph10.5 kmh 29.86 in1011.2 mb 0.00 in0.0 mm 0.00 in/hr0.0 mm/hr 0.00 in0.0 mm
03:07 AM 79.6°F26.4°C 71.3°F21.8°C 76% 5.2 mph SE8.4 kmh SE 6.5 mph10.5 kmh 29.86 in1011.2 mb 0.00 in0.0 mm 0.00 in/hr0.0 mm/hr 0.00 in0.0 mm
03:02 AM 79.7°F26.5°C 71.5°F21.9°C 76% 3.8 mph E6.1 kmh E 6.0 mph9.7 kmh 29.86 in1011.2 mb 0.00 in0.0 mm 0.00 in/hr0.0 mm/hr 0.00 in0.0 mm
02:57 AM 79.7°F26.5°C 71.5°F21.9°C 76% 3.1 mph ESE5.0 kmh ESE 7.8 mph12.6 kmh 29.86 in1011.2 mb 0.00 in0.0 mm 0.00 in/hr0.0 mm/hr 0.00 in0.0 mm
02:52 AM 79.7°F26.5°C 71.5°F21.9°C 76% 4.1 mph ESE6.6 kmh ESE 7.8 mph12.6 kmh 29.86 in1011.2 mb 0.00 in0.0 mm 0.00 in/hr0.0 mm/hr 0.00 in0.0 mm
02:47 AM 79.9°F26.6°C 71.6°F22.0°C 76% 2.8 mph NE4.5 kmh NE 8.1 mph13.0 kmh 29.86 in1011.2 mb 0.00 in0.0 mm 0.00 in/hr0.0 mm/hr 0.00 in0.0 mm
02:42 AM 79.9°F26.6°C 71.6°F22.0°C 76% 5.5 mph NE8.9 kmh NE 8.1 mph13.0 kmh 29.86 in1011.2 mb 0.00 in0.0 mm 0.00 in/hr0.0 mm/hr 0.00 in0.0 mm
02:37 AM 79.9°F26.6°C 71.3°F21.8°C 75% 3.8 mph ESE6.1 kmh ESE 6.9 mph11.1 kmh 29.86 in1011.2 mb 0.00 in0.0 mm 0.00 in/hr0.0 mm/hr 0.00 in0.0 mm
02:32 AM 80.1°F26.7°C 71.5°F21.9°C 75% 3.4 mph SE5.5 kmh SE 6.9 mph11.1 kmh 29.86 in1011.2 mb 0.00 in0.0 mm 0.00 in/hr0.0 mm/hr 0.00 in0.0 mm
02:27 AM 80.1°F26.7°C 71.5°F21.9°C 75% 6.9 mph E11.1 kmh E 6.9 mph11.1 kmh 29.86 in1011.2 mb 0.00 in0.0 mm 0.00 in/hr0.0 mm/hr 0.00 in0.0 mm
02:22 AM 80.3°F26.8°C 71.6°F22.0°C 75% 2.7 mph ESE4.3 kmh ESE 6.9 mph11.1 kmh 29.86 in1011.2 mb 0.00 in0.0 mm 0.00 in/hr0.0 mm/hr 0.00 in0.0 mm
02:17 AM 80.3°F26.8°C 71.6°F22.0°C 75% 3.3 mph E5.3 kmh E 7.2 mph11.6 kmh 29.86 in1011.2 mb 0.00 in0.0 mm 0.00 in/hr0.0 mm/hr 0.00 in0.0 mm
02:12 AM 80.3°F26.8°C 71.6°F22.0°C 75% 5.5 mph E8.9 kmh E 7.2 mph11.6 kmh 29.86 in1011.2 mb 0.00 in0.0 mm 0.00 in/hr0.0 mm/hr 0.00 in0.0 mm
02:07 AM 80.3°F26.8°C 71.6°F22.0°C 75% 1.0 mph ESE1.6 kmh ESE 5.4 mph8.7 kmh 29.86 in1011.2 mb 0.00 in0.0 mm 0.00 in/hr0.0 mm/hr 0.00 in0.0 mm
02:02 AM 80.3°F26.8°C 71.6°F22.0°C 75% 3.8 mph E6.1 kmh E 7.6 mph12.2 kmh 29.86 in1011.2 mb 0.00 in0.0 mm 0.00 in/hr0.0 mm/hr 0.00 in0.0 mm
01:57 AM 80.5°F26.9°C 71.5°F21.9°C 74% 2.7 mph NE4.3 kmh NE 7.6 mph12.2 kmh 29.86 in1011.2 mb 0.00 in0.0 mm 0.00 in/hr0.0 mm/hr 0.00 in0.0 mm
01:52 AM 80.5°F26.9°C 71.5°F21.9°C 74% 6.0 mph E9.7 kmh E 7.6 mph12.2 kmh 29.86 in1011.2 mb 0.00 in0.0 mm 0.00 in/hr0.0 mm/hr 0.00 in0.0 mm
01:47 AM 80.5°F26.9°C 71.5°F21.9°C 74% 2.0 mph E3.2 kmh E 5.4 mph8.7 kmh 29.86 in1011.2 mb 0.00 in0.0 mm 0.00 in/hr0.0 mm/hr 0.00 in0.0 mm
01:42 AM 80.6°F27.0°C 71.7°F22.1°C 74% 3.0 mph E4.8 kmh E 7.6 mph12.2 kmh 29.86 in1011.2 mb 0.00 in0.0 mm 0.00 in/hr0.0 mm/hr 0.00 in0.0 mm
01:37 AM 80.6°F27.0°C 71.7°F22.1°C 74% 5.0 mph E8.0 kmh E 8.3 mph13.4 kmh 29.86 in1011.2 mb 0.00 in0.0 mm 0.00 in/hr0.0 mm/hr 0.00 in0.0 mm
01:32 AM 80.6°F27.0°C 71.2°F21.8°C 73% 7.3 mph ESE11.7 kmh ESE 8.3 mph13.4 kmh 29.86 in1011.2 mb 0.00 in0.0 mm 0.00 in/hr0.0 mm/hr 0.00 in0.0 mm
01:27 AM 80.8°F27.1°C 71.4°F21.9°C 73% 2.9 mph ESE4.7 kmh ESE 4.0 mph6.4 kmh 29.86 in1011.2 mb 0.00 in0.0 mm 0.00 in/hr0.0 mm/hr 0.00 in0.0 mm
01:22 AM 80.8°F27.1°C 71.4°F21.9°C 73% 2.1 mph E3.4 kmh E 7.2 mph11.6 kmh 29.87 in1011.5 mb 0.00 in0.0 mm 0.00 in/hr0.0 mm/hr 0.00 in0.0 mm
01:17 AM 81.0°F27.2°C 71.1°F21.7°C 72% 4.1 mph ESE6.6 kmh ESE 7.2 mph11.6 kmh 29.87 in1011.5 mb 0.00 in0.0 mm 0.00 in/hr0.0 mm/hr 0.00 in0.0 mm
01:12 AM 81.0°F27.2°C 71.1°F21.7°C 72% 5.6 mph ENE9.0 kmh ENE 5.6 mph9.0 kmh 29.86 in1011.2 mb 0.00 in0.0 mm 0.00 in/hr0.0 mm/hr 0.00 in0.0 mm
01:07 AM 81.2°F27.3°C 71.3°F21.8°C 72% 2.7 mph ENE4.3 kmh ENE 4.0 mph6.4 kmh 29.86 in1011.2 mb 0.00 in0.0 mm 0.00 in/hr0.0 mm/hr 0.00 in0.0 mm
01:02 AM 81.2°F27.3°C 70.9°F21.6°C 71% 2.9 mph ESE4.7 kmh ESE 5.6 mph9.0 kmh 29.86 in1011.2 mb 0.00 in0.0 mm 0.00 in/hr0.0 mm/hr 0.00 in0.0 mm
12:57 AM 81.4°F27.4°C 71.1°F21.7°C 71% 2.0 mph E3.2 kmh E 5.8 mph9.3 kmh 29.86 in1011.2 mb 0.00 in0.0 mm 0.00 in/hr0.0 mm/hr 0.00 in0.0 mm
12:52 AM 81.4°F27.4°C 71.1°F21.7°C 71% 4.9 mph NE7.9 kmh NE 5.8 mph9.3 kmh 29.86 in1011.2 mb 0.00 in0.0 mm 0.00 in/hr0.0 mm/hr 0.00 in0.0 mm
12:47 AM 81.5°F27.5°C 71.3°F21.8°C 71% 3.4 mph NE5.5 kmh NE 7.6 mph12.2 kmh 29.86 in1011.2 mb 0.00 in0.0 mm 0.00 in/hr0.0 mm/hr 0.00 in0.0 mm
12:42 AM 81.7°F27.6°C 71.0°F21.7°C 70% 3.8 mph NNE6.1 kmh NNE 7.6 mph12.2 kmh 29.86 in1011.2 mb 0.00 in0.0 mm 0.00 in/hr0.0 mm/hr 0.00 in0.0 mm
12:37 AM 81.9°F27.7°C 70.8°F21.6°C 69% 3.7 mph NE6.0 kmh NE 4.7 mph7.6 kmh 29.86 in1011.2 mb 0.00 in0.0 mm 0.00 in/hr0.0 mm/hr 0.00 in0.0 mm
12:32 AM 82.1°F27.8°C 70.8°F21.6°C 69% 2.6 mph NE4.2 kmh NE 4.7 mph7.6 kmh 29.86 in1011.2 mb 0.00 in0.0 mm 0.00 in/hr0.0 mm/hr 0.00 in0.0 mm
12:27 AM 82.3°F27.9°C 71.0°F21.7°C 69% 4.7 mph ENE7.6 kmh ENE 7.2 mph11.6 kmh 29.86 in1011.2 mb 0.00 in0.0 mm 0.00 in/hr0.0 mm/hr 0.00 in0.0 mm
12:22 AM 82.3°F27.9°C 71.5°F21.9°C 70% 6.2 mph E10.0 kmh E 7.2 mph11.6 kmh 29.86 in1011.2 mb 0.00 in0.0 mm 0.00 in/hr0.0 mm/hr 0.00 in0.0 mm
12:17 AM 82.4°F28.0°C 71.2°F21.8°C 69% 4.5 mph E7.2 kmh E 6.3 mph10.1 kmh 29.87 in1011.5 mb 0.00 in0.0 mm 0.00 in/hr0.0 mm/hr 0.00 in0.0 mm
12:12 AM 82.4°F28.0°C 71.2°F21.8°C 69% 3.8 mph E6.1 kmh E 8.5 mph13.7 kmh 29.86 in1011.2 mb 0.00 in0.0 mm 0.00 in/hr0.0 mm/hr 0.00 in0.0 mm
12:07 AM 82.8°F28.2°C 71.1°F21.7°C 68% 7.5 mph ENE12.1 kmh ENE 8.5 mph13.7 kmh 29.86 in1011.2 mb 0.00 in0.0 mm 0.00 in/hr0.0 mm/hr 0.00 in0.0 mm
12:02 AM 83.0°F28.3°C 70.8°F21.6°C 67% 4.9 mph ESE7.9 kmh ESE 5.6 mph9.0 kmh 29.87 in1011.5 mb 0.00 in0.0 mm 0.00 in/hr0.0 mm/hr 0.00 in0.0 mm